createdAt,value
2018-05-26T00:00:17.647Z,13.50
2018-05-26T00:02:43.807Z,13.50
2018-05-26T00:05:09.877Z,13.50
2018-05-26T00:07:35.965Z,13.50
2018-05-26T00:10:02.122Z,13.50
2018-05-26T00:12:28.237Z,13.50
2018-05-26T00:14:54.305Z,13.50
2018-05-26T00:17:20.393Z,13.50
2018-05-26T00:19:46.494Z,13.40
2018-05-26T00:22:12.601Z,13.40
2018-05-26T00:24:38.682Z,13.40
2018-05-26T00:27:04.883Z,13.40
2018-05-26T00:29:30.962Z,13.30
2018-05-26T00:31:57.042Z,13.20
2018-05-26T00:34:23.124Z,13.10
2018-05-26T00:36:49.305Z,13.10
2018-05-26T00:39:16.141Z,13.10
2018-05-26T00:41:42.982Z,13.20
2018-05-26T00:44:09.073Z,13.10
2018-05-26T00:46:35.174Z,13.10
2018-05-26T00:49:01.253Z,13.10
2018-05-26T00:51:27.395Z,13.10
2018-05-26T00:53:53.507Z,13.00
2018-05-26T00:56:20.337Z,13.00
2018-05-26T00:58:46.447Z,13.00
2018-05-26T01:01:12.554Z,13.00
2018-05-26T01:03:38.712Z,13.00
2018-05-26T01:06:04.815Z,13.00
2018-05-26T01:08:31.666Z,13.00
2018-05-26T01:10:58.507Z,13.10
2018-05-26T01:13:24.611Z,13.10
2018-05-26T01:15:50.749Z,13.00
2018-05-26T01:18:16.852Z,13.10
2018-05-26T01:20:42.949Z,13.10
2018-05-26T01:23:09.048Z,13.10
2018-05-26T01:25:35.147Z,13.10
2018-05-26T01:28:02.003Z,13.00
2018-05-26T01:30:28.834Z,12.90
2018-05-26T01:32:54.934Z,12.80
2018-05-26T01:35:21.038Z,12.80
2018-05-26T01:37:47.891Z,12.70
2018-05-26T01:40:14.717Z,12.60
2018-05-26T01:42:40.815Z,12.60
2018-05-26T01:45:06.891Z,12.60
2018-05-26T01:47:32.991Z,12.50
2018-05-26T01:49:59.061Z,12.50
2018-05-26T01:52:25.186Z,12.50
2018-05-26T01:54:51.265Z,12.50
2018-05-26T01:57:18.089Z,12.50
2018-05-26T01:59:44.157Z,12.50
2018-05-26T02:02:10.222Z,12.40
2018-05-26T02:04:36.310Z,12.30
2018-05-26T02:07:02.389Z,12.30
2018-05-26T02:09:28.469Z,12.20
2018-05-26T02:11:55.277Z,12.30
2018-05-26T02:14:22.114Z,12.30
2018-05-26T02:16:48.946Z,12.40
2018-05-26T02:19:15.058Z,12.30
2018-05-26T02:21:41.129Z,12.30
2018-05-26T02:24:07.227Z,12.30
2018-05-26T02:26:33.288Z,12.20
2018-05-26T02:28:59.385Z,12.20
2018-05-26T02:31:25.459Z,12.20
2018-05-26T02:33:51.559Z,12.10
2018-05-26T02:36:17.634Z,12.00
2018-05-26T02:38:43.722Z,12.00
2018-05-26T02:41:10.590Z,12.00
2018-05-26T02:43:36.685Z,12.00
2018-05-26T02:46:02.763Z,12.00
2018-05-26T02:48:28.870Z,12.00
2018-05-26T02:50:54.940Z,12.00
2018-05-26T02:53:21.018Z,12.00
2018-05-26T02:55:47.123Z,11.90
2018-05-26T02:58:13.228Z,11.90
2018-05-26T03:00:39.295Z,11.90
2018-05-26T03:03:05.401Z,11.80
2018-05-26T03:05:37.486Z,11.80
2018-05-26T03:08:10.577Z,11.70
2018-05-26T03:10:42.818Z,11.70
2018-05-26T03:13:15.208Z,11.70
2018-05-26T03:15:42.140Z,11.70
2018-05-26T03:18:10.112Z,11.70
2018-05-26T03:20:36.940Z,11.70
2018-05-26T03:23:03.011Z,11.60
2018-05-26T03:25:29.107Z,11.60
2018-05-26T03:27:55.185Z,11.60
2018-05-26T03:30:21.265Z,11.60
2018-05-26T03:32:47.334Z,11.70
2018-05-26T03:35:13.423Z,11.60
2018-05-26T03:37:39.547Z,11.50
2018-05-26T03:40:05.631Z,11.40
2018-05-26T03:42:31.731Z,11.50
2018-05-26T03:44:57.823Z,11.50
2018-05-26T03:47:23.913Z,11.40
2018-05-26T03:49:49.999Z,11.40
2018-05-26T03:52:16.810Z,11.40
2018-05-26T03:58:05.857Z,11.40
2018-05-26T04:00:31.955Z,11.50
2018-05-26T04:02:58.024Z,11.50
2018-05-26T04:05:24.135Z,11.60
2018-05-26T04:07:50.219Z,11.70
2018-05-26T04:10:17.034Z,11.80
2018-05-26T04:12:43.123Z,11.70
2018-05-26T04:15:09.934Z,11.90
2018-05-26T04:17:36.024Z,11.80
2018-05-26T04:20:02.107Z,11.80
2018-05-26T04:22:28.180Z,11.90
2018-05-26T04:24:54.994Z,11.90
2018-05-26T04:27:21.822Z,12.00
2018-05-26T04:29:47.902Z,12.00
2018-05-26T04:32:13.991Z,12.10
2018-05-26T04:34:40.062Z,12.20
2018-05-26T04:37:06.145Z,12.30
2018-05-26T04:39:32.966Z,12.30
2018-05-26T04:41:59.045Z,12.30
2018-05-26T04:44:25.201Z,12.40
2018-05-26T04:46:51.289Z,12.40
2018-05-26T04:49:17.374Z,12.40
2018-05-26T04:51:43.465Z,12.50
2018-05-26T04:54:09.766Z,12.60
2018-05-26T04:56:35.874Z,12.70
2018-05-26T04:59:02.701Z,13.00
2018-05-26T05:01:28.809Z,13.00
2018-05-26T05:03:54.894Z,13.10
2018-05-26T05:06:21.747Z,13.20
2018-05-26T05:08:47.843Z,13.20
2018-05-26T05:11:13.938Z,13.30
2018-05-26T05:13:40.767Z,13.60
2018-05-26T05:16:06.969Z,13.60
2018-05-26T05:18:33.057Z,13.80
2018-05-26T05:20:59.376Z,13.90
2018-05-26T05:23:25.590Z,14.10
2018-05-26T05:25:51.902Z,14.30
2018-05-26T05:28:18.808Z,14.60
2018-05-26T05:30:44.927Z,14.60
2018-05-26T05:33:11.036Z,14.80
2018-05-26T05:35:37.203Z,14.90
2018-05-26T05:38:03.306Z,15.10
2018-05-26T05:40:30.117Z,15.40
2018-05-26T05:42:56.235Z,15.40
2018-05-26T05:45:22.330Z,15.60
2018-05-26T05:47:49.165Z,15.90
2018-05-26T05:50:15.362Z,15.90
2018-05-26T05:52:41.503Z,16.00
2018-05-26T05:55:07.645Z,16.10
2018-05-26T05:57:33.777Z,16.20
2018-05-26T05:59:59.918Z,16.40
2018-05-26T06:02:26.012Z,16.50
2018-05-26T06:04:52.835Z,16.70
2018-05-26T06:07:18.949Z,16.70
2018-05-26T06:09:45.086Z,16.80
2018-05-26T06:12:11.183Z,16.90
2018-05-26T06:14:37.273Z,17.00
2018-05-26T06:17:03.427Z,17.10
2018-05-26T06:19:29.525Z,17.10
2018-05-26T06:21:55.618Z,17.30
2018-05-26T06:24:21.724Z,17.30
2018-05-26T06:26:47.826Z,17.40
2018-05-26T06:29:13.986Z,17.40
2018-05-26T06:31:40.107Z,17.50
2018-05-26T06:34:06.175Z,17.60
2018-05-26T06:36:32.241Z,17.70
2018-05-26T06:38:58.333Z,17.90
2018-05-26T06:41:24.416Z,17.90
2018-05-26T06:43:50.524Z,18.00
2018-05-26T06:46:16.618Z,18.10
2018-05-26T06:48:43.445Z,18.20
2018-05-26T06:51:09.533Z,18.20
2018-05-26T06:53:35.629Z,18.30
2018-05-26T06:56:01.701Z,18.40
2018-05-26T06:58:28.556Z,18.60
2018-05-26T07:00:54.661Z,18.50
2018-05-26T07:03:20.758Z,18.70
2018-05-26T07:05:46.846Z,18.80
2018-05-26T07:08:12.938Z,18.90
2018-05-26T07:10:39.009Z,18.90
2018-05-26T07:13:05.112Z,19.00
2018-05-26T07:15:31.181Z,19.20
2018-05-26T07:17:57.274Z,19.20
2018-05-26T07:20:23.354Z,19.30
2018-05-26T07:22:49.443Z,19.40
2018-05-26T07:25:15.525Z,19.50
2018-05-26T07:27:41.621Z,19.60
2018-05-26T07:30:07.705Z,19.80
2018-05-26T07:32:33.805Z,19.90
2018-05-26T07:34:59.963Z,19.90
2018-05-26T07:37:26.049Z,20.00
2018-05-26T07:39:52.869Z,20.20
2018-05-26T07:42:19.027Z,20.10
2018-05-26T07:44:45.119Z,20.10
2018-05-26T07:47:11.227Z,20.20
2018-05-26T07:49:37.395Z,20.30
2018-05-26T07:52:03.521Z,20.30
2018-05-26T07:54:29.678Z,20.40
2018-05-26T07:56:55.774Z,20.50
2018-05-26T07:59:22.605Z,20.60
2018-05-26T08:01:48.682Z,20.60
2018-05-26T08:04:15.519Z,20.70
2018-05-26T08:06:42.421Z,20.80
2018-05-26T08:09:09.263Z,20.90
2018-05-26T08:11:35.344Z,20.90
2018-05-26T08:14:01.453Z,21.00
2018-05-26T08:16:27.542Z,21.20
2018-05-26T08:18:53.637Z,21.30
2018-05-26T08:21:19.729Z,21.50
2018-05-26T08:23:45.843Z,21.40
2018-05-26T08:26:11.934Z,21.40
2018-05-26T08:28:38.025Z,21.50
2018-05-26T08:31:04.124Z,21.60
2018-05-26T08:33:30.236Z,21.70
2018-05-26T08:35:56.325Z,21.70
2018-05-26T08:38:22.427Z,21.70
2018-05-26T08:40:48.517Z,21.80
2018-05-26T08:43:14.622Z,21.80
2018-05-26T08:45:40.698Z,21.90
2018-05-26T08:48:07.538Z,22.10
2018-05-26T08:50:33.631Z,22.10
2018-05-26T08:52:59.723Z,22.20
2018-05-26T08:55:25.801Z,22.30
2018-05-26T08:57:51.898Z,22.30
2018-05-26T09:00:17.980Z,22.30
2018-05-26T09:02:44.074Z,22.30
2018-05-26T09:05:10.159Z,22.40
2018-05-26T09:07:36.261Z,22.50
2018-05-26T09:10:03.082Z,22.50
2018-05-26T09:12:29.174Z,22.50
2018-05-26T09:14:55.245Z,22.50
2018-05-26T09:17:21.325Z,22.60
2018-05-26T09:19:47.449Z,22.70
2018-05-26T09:22:13.513Z,22.70
2018-05-26T09:24:39.616Z,22.80
2018-05-26T09:27:05.707Z,22.90
2018-05-26T09:29:31.804Z,23.00
2018-05-26T09:31:57.887Z,22.80
2018-05-26T09:34:23.986Z,22.80
2018-05-26T09:36:50.065Z,23.00
2018-05-26T09:39:16.159Z,22.90
2018-05-26T09:41:42.241Z,23.00
2018-05-26T09:44:08.334Z,23.20
2018-05-26T09:46:34.412Z,23.20
2018-05-26T09:49:00.491Z,23.40
2018-05-26T09:51:26.557Z,23.30
2018-05-26T09:53:53.395Z,23.40
2018-05-26T09:56:19.473Z,23.30
2018-05-26T09:58:45.544Z,23.40
2018-05-26T10:01:11.616Z,23.60
2018-05-26T10:03:37.712Z,23.60
2018-05-26T10:06:03.795Z,23.60
2018-05-26T10:08:30.762Z,23.80
2018-05-26T10:10:57.587Z,24.00
2018-05-26T10:13:23.669Z,23.90
2018-05-26T10:15:49.734Z,23.90
2018-05-26T10:18:15.818Z,24.00
2018-05-26T10:20:42.631Z,24.20
2018-05-26T10:23:08.722Z,24.20
2018-05-26T10:25:34.802Z,24.10
2018-05-26T10:28:00.890Z,24.00
2018-05-26T10:30:27.698Z,24.20
2018-05-26T10:32:53.786Z,24.20
2018-05-26T10:35:20.604Z,24.50
2018-05-26T10:37:46.669Z,24.40
2018-05-26T10:40:14.811Z,24.80
2018-05-26T10:42:40.901Z,24.80
2018-05-26T10:45:07.733Z,24.90
2018-05-26T10:47:33.806Z,24.90
2018-05-26T10:49:59.984Z,24.70
2018-05-26T10:52:26.071Z,24.40
2018-05-26T10:54:52.899Z,24.70
2018-05-26T10:57:18.979Z,24.70
2018-05-26T10:59:45.053Z,24.80
2018-05-26T11:02:11.150Z,24.90
2018-05-26T11:04:37.983Z,25.10
2018-05-26T11:07:04.068Z,25.10
2018-05-26T11:09:30.204Z,25.10
2018-05-26T11:11:56.277Z,25.10
2018-05-26T11:14:22.364Z,25.40
2018-05-26T11:16:48.466Z,25.70
2018-05-26T11:19:14.559Z,26.10
2018-05-26T11:21:40.622Z,26.10
2018-05-26T11:24:06.954Z,26.00
2018-05-26T11:26:32.791Z,25.90
2018-05-26T11:28:58.920Z,25.60
2018-05-26T11:31:24.960Z,25.70
2018-05-26T11:33:51.056Z,25.80
2018-05-26T11:36:17.139Z,26.10
2018-05-26T11:38:43.231Z,26.10
2018-05-26T11:41:10.043Z,26.40
2018-05-26T11:43:36.162Z,26.40
2018-05-26T11:46:02.254Z,26.50
2018-05-26T11:48:28.358Z,26.40
2018-05-26T11:50:54.451Z,26.30
2018-05-26T11:53:20.556Z,26.30
2018-05-26T11:55:46.653Z,26.50
2018-05-26T11:58:12.745Z,26.80
2018-05-26T12:00:39.590Z,26.40
2018-05-26T12:03:06.441Z,26.50
2018-05-26T12:05:32.533Z,26.50
2018-05-26T12:07:58.625Z,26.70
2018-05-26T12:10:25.467Z,27.30
2018-05-26T12:12:51.551Z,27.30
2018-05-26T12:15:19.645Z,27.50
2018-05-26T12:17:45.744Z,27.40
2018-05-26T12:20:11.836Z,27.50
2018-05-26T12:22:37.946Z,27.50
2018-05-26T12:25:04.055Z,27.50
2018-05-26T12:27:30.878Z,27.90
2018-05-26T12:29:56.974Z,27.90
2018-05-26T12:32:23.053Z,28.00
2018-05-26T12:34:49.159Z,27.50
2018-05-26T12:37:15.243Z,27.70
2018-05-26T12:39:41.456Z,27.90
2018-05-26T12:42:07.533Z,28.10
2018-05-26T12:44:33.625Z,28.10
2018-05-26T12:46:59.710Z,28.50
2018-05-26T12:49:25.812Z,28.40
2018-05-26T12:51:51.886Z,28.40
2018-05-26T12:54:17.979Z,27.90
2018-05-26T12:56:44.077Z,27.90
2018-05-26T12:59:10.177Z,28.10
2018-05-26T13:01:36.267Z,28.10
2018-05-26T13:04:02.354Z,28.00
2018-05-26T13:06:28.429Z,28.30
2018-05-26T13:08:55.291Z,28.60
2018-05-26T13:11:22.123Z,28.00
2018-05-26T13:13:48.235Z,27.90
2018-05-26T13:16:14.339Z,27.60
2018-05-26T13:18:40.492Z,27.20
2018-05-26T13:21:06.577Z,27.00
2018-05-26T13:23:32.663Z,27.00
2018-05-26T13:25:58.773Z,27.90
2018-05-26T13:28:25.598Z,28.70
2018-05-26T13:30:51.698Z,28.70
2018-05-26T13:33:17.777Z,29.10
2018-05-26T13:35:43.871Z,29.80
2018-05-26T13:38:09.949Z,30.60
2018-05-26T13:40:36.043Z,30.60
2018-05-26T13:43:02.124Z,30.10
2018-05-26T13:45:28.201Z,29.90
2018-05-26T13:47:54.277Z,29.40
2018-05-26T13:50:20.380Z,28.70
2018-05-26T13:52:46.518Z,28.50
2018-05-26T13:55:12.672Z,28.40
2018-05-26T13:57:38.685Z,27.90
2018-05-26T14:00:04.774Z,27.90
2018-05-26T14:02:30.855Z,28.00
2018-05-26T14:04:56.929Z,28.80
2018-05-26T14:07:23.014Z,29.30
2018-05-26T14:09:49.114Z,30.30
2018-05-26T14:12:15.196Z,31.20
2018-05-26T14:14:41.383Z,32.10
2018-05-26T14:17:07.445Z,32.20
2018-05-26T14:19:34.283Z,33.70
2018-05-26T14:22:00.349Z,33.60
2018-05-26T14:24:26.455Z,33.80
2018-05-26T14:26:52.544Z,33.60
2018-05-26T14:29:18.641Z,33.60
2018-05-26T14:31:44.705Z,33.60
2018-05-26T14:34:10.770Z,33.40
2018-05-26T14:36:37.601Z,32.20
2018-05-26T14:39:03.674Z,32.20
2018-05-26T14:41:29.768Z,31.70
2018-05-26T14:43:55.850Z,31.40
2018-05-26T14:46:21.998Z,31.20
2018-05-26T14:48:48.090Z,30.50
2018-05-26T14:51:14.175Z,30.00
2018-05-26T14:53:40.359Z,29.20
2018-05-26T14:56:06.454Z,28.90
2018-05-26T14:58:32.566Z,28.90
2018-05-26T15:00:59.390Z,29.10
2018-05-26T15:03:25.472Z,29.10
2018-05-26T15:05:51.567Z,30.00
2018-05-26T15:08:17.761Z,31.40
2018-05-26T15:10:43.911Z,32.90
2018-05-26T15:13:10.028Z,33.60
2018-05-26T15:15:36.081Z,34.20
2018-05-26T15:18:02.163Z,34.40
2018-05-26T15:20:28.252Z,33.40
2018-05-26T15:22:54.336Z,34.40
2018-05-26T15:25:20.420Z,34.30
2018-05-26T15:27:46.565Z,34.60
2018-05-26T15:30:12.650Z,34.30
2018-05-26T15:32:38.712Z,34.70
2018-05-26T15:35:05.525Z,33.40
2018-05-26T15:37:31.597Z,33.40
2018-05-26T15:39:57.673Z,33.60
2018-05-26T15:42:23.792Z,34.50
2018-05-26T15:44:49.834Z,35.20
2018-05-26T15:47:16.633Z,37.10
2018-05-26T15:49:42.738Z,37.00
2018-05-26T15:52:08.802Z,37.10
2018-05-26T15:54:34.860Z,37.30
2018-05-26T15:57:00.942Z,37.00
2018-05-26T15:59:27.005Z,37.50
2018-05-26T16:01:53.090Z,37.80
2018-05-26T16:04:19.171Z,37.60
2018-05-26T16:06:45.255Z,37.30
2018-05-26T16:09:11.328Z,36.80
2018-05-26T16:11:37.477Z,36.40
2018-05-26T16:14:03.612Z,36.80
2018-05-26T16:16:29.706Z,36.90
2018-05-26T16:18:55.770Z,37.50
2018-05-26T16:21:21.863Z,36.90
2018-05-26T16:23:47.947Z,37.70
2018-05-26T16:26:14.779Z,38.30
2018-05-26T16:28:40.848Z,38.30
2018-05-26T16:31:07.675Z,38.00
2018-05-26T16:33:33.743Z,38.00
2018-05-26T16:36:00.566Z,37.20
2018-05-26T16:38:26.651Z,37.10
2018-05-26T16:40:52.717Z,37.30
2018-05-26T16:43:18.809Z,36.50
2018-05-26T16:45:45.646Z,37.40
2018-05-26T16:48:11.726Z,37.40
2018-05-26T16:50:37.813Z,37.30
2018-05-26T16:53:03.902Z,37.20
2018-05-26T16:55:30.007Z,37.40
2018-05-26T16:57:56.830Z,37.90
2018-05-26T17:00:22.922Z,37.90
2018-05-26T17:02:48.999Z,37.60
2018-05-26T17:05:15.089Z,38.00
2018-05-26T17:07:41.184Z,38.40
2018-05-26T17:10:07.295Z,38.60
2018-05-26T17:12:33.395Z,38.70
2018-05-26T17:14:59.482Z,38.40
2018-05-26T17:17:25.575Z,38.40
2018-05-26T17:19:52.413Z,37.30
2018-05-26T17:22:19.248Z,37.00
2018-05-26T17:24:45.334Z,37.00
2018-05-26T17:27:11.429Z,36.30
2018-05-26T17:29:37.518Z,37.30
2018-05-26T17:32:03.634Z,37.30
2018-05-26T17:34:29.721Z,37.50
2018-05-26T17:36:55.830Z,37.70
2018-05-26T17:39:28.889Z,38.10
2018-05-26T17:41:54.974Z,37.60
2018-05-26T17:44:21.053Z,37.20
2018-05-26T17:46:47.151Z,36.80
2018-05-26T17:49:13.247Z,37.20
2018-05-26T17:51:40.095Z,35.60
2018-05-26T17:54:06.179Z,35.60
2018-05-26T17:56:32.279Z,35.60
2018-05-26T17:58:59.102Z,34.40
2018-05-26T18:01:25.203Z,34.40
2018-05-26T18:03:51.277Z,34.50
2018-05-26T18:06:17.405Z,34.30
2018-05-26T18:08:43.479Z,33.90
2018-05-26T18:11:10.321Z,33.70
2018-05-26T18:13:36.389Z,33.70
2018-05-26T18:16:03.235Z,33.70
2018-05-26T18:18:29.412Z,33.60
2018-05-26T18:20:55.506Z,33.70
2018-05-26T18:23:21.585Z,33.20
2018-05-26T18:25:47.691Z,32.70
2018-05-26T18:28:14.514Z,32.30
2018-05-26T18:30:40.604Z,32.30
2018-05-26T18:33:06.681Z,31.80
2018-05-26T18:35:32.761Z,31.50
2018-05-26T18:37:59.613Z,30.80
2018-05-26T18:40:26.438Z,30.20
2018-05-26T18:42:52.546Z,30.20
2018-05-26T18:45:18.630Z,29.90
2018-05-26T18:47:44.734Z,29.40
2018-05-26T18:50:10.859Z,28.70
2018-05-26T18:52:36.958Z,28.30
2018-05-26T18:55:03.799Z,27.20
2018-05-26T18:57:29.897Z,27.10
2018-05-26T18:59:55.982Z,26.30
2018-05-26T19:02:22.083Z,25.60
2018-05-26T19:04:48.188Z,25.10
2018-05-26T19:07:14.287Z,24.40
2018-05-26T19:09:40.371Z,24.00
2018-05-26T19:12:06.483Z,23.60
2018-05-26T19:14:33.310Z,22.90
2018-05-26T19:16:59.413Z,22.90
2018-05-26T19:19:25.515Z,22.60
2018-05-26T19:21:52.352Z,22.00
2018-05-26T19:24:18.455Z,22.00
2018-05-26T19:26:44.560Z,21.90
2018-05-26T19:29:10.645Z,21.70
2018-05-26T19:31:36.741Z,21.40
2018-05-26T19:34:02.835Z,21.20
2018-05-26T19:36:28.940Z,21.00
2018-05-26T19:38:55.026Z,20.80
2018-05-26T19:41:21.124Z,20.70
2018-05-26T19:43:47.234Z,20.50
2018-05-26T19:46:13.379Z,20.40
2018-05-26T19:48:39.464Z,20.30
2018-05-26T19:51:05.546Z,20.10
2018-05-26T19:53:31.645Z,20.00
2018-05-26T19:55:57.720Z,19.90
2018-05-26T19:58:23.881Z,19.70
2018-05-26T20:00:50.665Z,19.50
2018-05-26T20:03:16.767Z,19.50
2018-05-26T20:05:42.863Z,19.40
2018-05-26T20:08:08.972Z,19.30
2018-05-26T20:10:35.049Z,19.30
2018-05-26T20:13:01.894Z,19.10
2018-05-26T20:15:28.084Z,19.10
2018-05-26T20:17:54.245Z,18.90
2018-05-26T20:20:20.289Z,18.80
2018-05-26T20:22:46.373Z,18.70
2018-05-26T20:25:12.455Z,18.60
2018-05-26T20:27:38.554Z,18.50
2018-05-26T20:30:04.646Z,18.40
2018-05-26T20:32:30.756Z,18.40
2018-05-26T20:34:56.841Z,18.30
2018-05-26T20:37:22.939Z,18.20
2018-05-26T20:39:49.022Z,18.10
2018-05-26T20:42:15.882Z,18.00
2018-05-26T20:44:42.687Z,17.90
2018-05-26T20:47:08.769Z,17.90
2018-05-26T20:49:35.565Z,17.60
2018-05-26T20:52:01.641Z,17.50
2018-05-26T20:54:27.717Z,17.60
2018-05-26T20:56:53.798Z,17.60
2018-05-26T20:59:19.861Z,17.50
2018-05-26T21:01:45.933Z,17.40
2018-05-26T21:04:11.989Z,17.40
2018-05-26T21:06:38.113Z,17.30
2018-05-26T21:09:04.207Z,17.20
2018-05-26T21:11:30.308Z,17.20
2018-05-26T21:13:56.425Z,17.20
2018-05-26T21:16:22.497Z,17.20
2018-05-26T21:18:48.588Z,17.10
2018-05-26T21:21:14.674Z,17.00
2018-05-26T21:23:40.745Z,16.90
2018-05-26T21:26:06.806Z,16.70
2018-05-26T21:28:32.889Z,16.50
2018-05-26T21:30:58.949Z,16.20
2018-05-26T21:33:25.026Z,16.10
2018-05-26T21:35:51.093Z,16.10
2018-05-26T21:38:17.905Z,15.90
2018-05-26T21:40:44.008Z,15.90
2018-05-26T21:43:10.119Z,15.80
2018-05-26T21:45:36.177Z,15.70
2018-05-26T21:48:02.262Z,15.70
2018-05-26T21:50:28.339Z,15.80
2018-05-26T21:52:54.425Z,15.80
2018-05-26T21:55:21.290Z,15.90
2018-05-26T21:57:47.396Z,15.90
2018-05-26T22:00:13.462Z,15.80
2018-05-26T22:02:39.542Z,15.80
2018-05-26T22:05:05.642Z,15.90
2018-05-26T22:07:31.742Z,15.80
2018-05-26T22:09:57.814Z,15.80
2018-05-26T22:12:23.907Z,15.70
2018-05-26T22:14:49.978Z,15.70
2018-05-26T22:17:16.807Z,15.70
2018-05-26T22:19:42.883Z,15.70
2018-05-26T22:22:08.965Z,15.70
2018-05-26T22:24:35.046Z,15.70
2018-05-26T22:27:01.134Z,15.60
2018-05-26T22:29:27.198Z,15.60
2018-05-26T22:31:53.269Z,15.60
2018-05-26T22:34:19.349Z,15.50
2018-05-26T22:36:45.419Z,15.50
2018-05-26T22:39:11.495Z,15.40
2018-05-26T22:41:37.621Z,15.40
2018-05-26T22:44:03.715Z,15.40
2018-05-26T22:46:29.783Z,15.40
2018-05-26T22:48:56.603Z,15.30
2018-05-26T22:51:22.681Z,15.30
2018-05-26T22:53:48.774Z,15.30
2018-05-26T22:56:14.837Z,15.10
2018-05-26T22:58:40.913Z,15.00
2018-05-26T23:01:06.977Z,15.00
2018-05-26T23:03:33.053Z,14.90
2018-05-26T23:05:59.114Z,14.90
2018-05-26T23:08:25.203Z,14.90
2018-05-26T23:10:51.284Z,14.80
2018-05-26T23:13:17.383Z,14.90
2018-05-26T23:15:43.467Z,14.90
2018-05-26T23:18:09.543Z,14.90
2018-05-26T23:20:35.614Z,14.90
2018-05-26T23:23:01.703Z,14.80
2018-05-26T23:25:27.771Z,14.60
2018-05-26T23:27:53.850Z,14.50
2018-05-26T23:30:19.987Z,14.40
2018-05-26T23:32:46.066Z,14.40
2018-05-26T23:35:12.159Z,14.40
2018-05-26T23:37:38.250Z,14.40
2018-05-26T23:40:04.329Z,14.30
2018-05-26T23:42:31.221Z,14.10
2018-05-26T23:44:57.327Z,14.10
2018-05-26T23:47:24.130Z,14.20
2018-05-26T23:49:50.242Z,14.10
2018-05-26T23:52:16.326Z,14.20
2018-05-26T23:54:42.418Z,14.20
2018-05-26T23:57:08.490Z,14.20
2018-05-26T23:59:34.590Z,14.20
